createdAt,value
2022-12-31T00:00:02.369Z,88.61
2022-12-31T00:02:29.083Z,88.50
2022-12-31T00:04:55.631Z,88.52
2022-12-31T00:07:22.006Z,88.26
2022-12-31T00:09:48.567Z,89.16
2022-12-31T00:12:14.938Z,89.10
2022-12-31T00:14:41.354Z,88.13
2022-12-31T00:17:07.825Z,87.89
2022-12-31T00:19:34.352Z,88.49
2022-12-31T00:22:00.705Z,88.17
2022-12-31T00:24:30.902Z,88.06
2022-12-31T00:26:57.347Z,88.45
2022-12-31T00:29:23.712Z,88.60
2022-12-31T00:31:50.049Z,88.10
2022-12-31T00:34:16.435Z,88.20
2022-12-31T00:36:43.055Z,87.55
2022-12-31T00:39:10.273Z,87.88
2022-12-31T00:41:36.949Z,87.10
2022-12-31T00:44:03.866Z,87.10
2022-12-31T00:46:31.596Z,87.19
2022-12-31T00:48:58.097Z,86.80
2022-12-31T00:51:27.392Z,87.19
2022-12-31T00:53:55.361Z,86.38
2022-12-31T00:56:22.602Z,86.01
2022-12-31T00:58:49.535Z,85.53
2022-12-31T01:01:21.882Z,87.08
2022-12-31T01:03:49.867Z,86.83
2022-12-31T01:06:17.176Z,86.32
2022-12-31T01:08:43.886Z,85.61
2022-12-31T01:11:24.003Z,86.12
2022-12-31T01:13:56.604Z,85.76
2022-12-31T01:16:25.792Z,85.83
2022-12-31T01:18:52.221Z,85.46
2022-12-31T01:21:19.504Z,85.23
2022-12-31T01:23:45.946Z,85.46
2022-12-31T01:26:14.341Z,85.03
2022-12-31T01:28:40.967Z,85.88
2022-12-31T01:31:09.589Z,84.94
2022-12-31T01:33:36.445Z,84.46
2022-12-31T01:36:11.458Z,84.58
2022-12-31T01:38:38.451Z,84.23
2022-12-31T01:41:05.395Z,82.79
2022-12-31T01:43:51.355Z,83.70
2022-12-31T01:46:43.768Z,83.33
2022-12-31T01:49:11.328Z,83.14
2022-12-31T01:51:38.397Z,83.45
2022-12-31T01:54:07.328Z,82.92
2022-12-31T01:56:34.416Z,82.67
2022-12-31T01:59:01.508Z,82.58
2022-12-31T02:01:29.824Z,81.88
2022-12-31T02:03:57.295Z,82.10
2022-12-31T02:06:35.159Z,80.37
2022-12-31T02:09:01.818Z,81.65
2022-12-31T02:11:31.346Z,81.74
2022-12-31T02:14:02.299Z,80.57
2022-12-31T02:16:37.748Z,79.82
2022-12-31T02:19:19.553Z,80.39
2022-12-31T02:21:55.716Z,80.56
2022-12-31T02:24:48.360Z,81.11
2022-12-31T02:27:39.565Z,80.90
2022-12-31T02:30:11.749Z,81.15
2022-12-31T02:33:03.027Z,81.10
2022-12-31T02:35:34.509Z,80.91
2022-12-31T02:38:05.088Z,80.74
2022-12-31T02:40:34.494Z,80.64
2022-12-31T02:43:00.884Z,80.73
2022-12-31T02:45:31.305Z,80.40
2022-12-31T02:48:12.233Z,80.61
2022-12-31T02:51:12.777Z,80.81
2022-12-31T02:53:48.067Z,79.94
2022-12-31T02:56:31.428Z,80.23
2022-12-31T02:59:19.970Z,79.72
2022-12-31T03:02:09.470Z,79.37
2022-12-31T03:04:36.621Z,79.78
2022-12-31T03:07:13.877Z,79.80
2022-12-31T03:09:40.320Z,79.94
2022-12-31T03:12:27.613Z,79.87
2022-12-31T03:14:54.142Z,79.81
2022-12-31T03:17:20.603Z,79.33
2022-12-31T03:20:05.510Z,79.52
2022-12-31T03:22:34.198Z,79.58
2022-12-31T03:25:26.012Z,79.29
2022-12-31T03:27:52.740Z,79.59
2022-12-31T03:30:20.376Z,79.25
2022-12-31T03:32:47.071Z,79.68
2022-12-31T03:35:15.281Z,78.43
2022-12-31T03:37:42.767Z,78.52
2022-12-31T03:40:11.522Z,77.41
2022-12-31T03:42:38.157Z,78.45
2022-12-31T03:45:05.242Z,77.54
2022-12-31T03:47:31.621Z,78.25
2022-12-31T03:49:57.965Z,77.42
2022-12-31T03:52:24.347Z,77.93
2022-12-31T03:54:50.750Z,78.48
2022-12-31T03:57:17.251Z,78.71
2022-12-31T03:59:43.679Z,78.21
2022-12-31T04:02:10.445Z,78.41
2022-12-31T04:04:36.915Z,79.07
2022-12-31T04:07:03.329Z,78.10
2022-12-31T04:09:29.693Z,78.53
2022-12-31T04:11:56.016Z,78.65
2022-12-31T04:14:22.386Z,78.59
2022-12-31T04:16:48.826Z,78.77
2022-12-31T04:19:15.212Z,78.50
2022-12-31T04:21:41.617Z,78.17
2022-12-31T04:24:08.031Z,79.23
2022-12-31T04:26:35.036Z,79.17
2022-12-31T04:29:01.521Z,78.82
2022-12-31T04:31:28.120Z,79.35
2022-12-31T04:33:54.569Z,78.15
2022-12-31T04:36:20.995Z,78.75
2022-12-31T04:38:47.456Z,80.06
2022-12-31T04:41:20.829Z,79.30
2022-12-31T04:43:52.202Z,79.00
2022-12-31T04:46:21.335Z,78.62
2022-12-31T04:48:47.860Z,79.07
2022-12-31T04:51:14.680Z,78.72
2022-12-31T04:53:41.311Z,78.76
2022-12-31T04:56:07.949Z,78.02
2022-12-31T04:58:34.668Z,78.14
2022-12-31T05:01:01.240Z,78.57
2022-12-31T05:03:27.893Z,78.37
2022-12-31T05:05:54.882Z,79.02
2022-12-31T05:08:21.256Z,78.34
2022-12-31T05:10:48.982Z,78.21
2022-12-31T05:13:15.721Z,77.97
2022-12-31T05:15:42.497Z,77.63
2022-12-31T05:18:09.238Z,77.77
2022-12-31T05:20:35.572Z,78.19
2022-12-31T05:23:01.971Z,77.98
2022-12-31T05:25:28.410Z,78.24
2022-12-31T05:27:54.805Z,78.16
2022-12-31T05:30:21.513Z,78.25
2022-12-31T05:32:47.919Z,77.93
2022-12-31T05:35:14.558Z,78.30
2022-12-31T05:37:40.966Z,77.81
2022-12-31T05:40:07.800Z,78.09
2022-12-31T05:42:34.543Z,78.13
2022-12-31T05:45:00.911Z,78.52
2022-12-31T05:47:27.460Z,78.68
2022-12-31T05:49:53.799Z,78.49
2022-12-31T05:52:20.763Z,79.21
2022-12-31T05:54:47.157Z,78.27
2022-12-31T05:57:13.609Z,78.44
2022-12-31T05:59:39.964Z,78.71
2022-12-31T06:02:06.356Z,78.51
2022-12-31T06:04:32.826Z,78.97
2022-12-31T06:06:59.356Z,78.72
2022-12-31T06:09:25.827Z,78.59
2022-12-31T06:11:52.247Z,78.22
2022-12-31T06:14:18.694Z,78.51
2022-12-31T06:16:45.088Z,78.39
2022-12-31T06:19:11.425Z,77.70
2022-12-31T06:21:37.779Z,77.85
2022-12-31T06:24:04.508Z,77.92
2022-12-31T06:26:30.840Z,77.57
2022-12-31T06:28:57.185Z,77.25
2022-12-31T06:31:23.688Z,77.31
2022-12-31T06:33:50.092Z,77.01
2022-12-31T06:36:16.489Z,77.10
2022-12-31T06:38:43.729Z,76.47
2022-12-31T06:41:12.441Z,76.00
2022-12-31T06:43:40.083Z,76.25
2022-12-31T06:46:08.046Z,76.25
2022-12-31T06:48:34.811Z,76.66
2022-12-31T06:51:15.041Z,76.75
2022-12-31T06:53:43.688Z,76.54
2022-12-31T06:56:34.075Z,76.39
2022-12-31T06:59:01.282Z,76.37
2022-12-31T07:01:38.973Z,76.34
2022-12-31T07:04:26.212Z,76.54
2022-12-31T07:07:06.753Z,76.99
2022-12-31T07:09:52.927Z,76.73
2022-12-31T07:12:42.558Z,76.43
2022-12-31T07:15:33.793Z,76.74
2022-12-31T07:18:37.211Z,76.71
2022-12-31T07:21:03.742Z,76.54
2022-12-31T07:23:30.326Z,76.13
2022-12-31T07:26:24.257Z,77.06
2022-12-31T07:29:11.493Z,76.07
2022-12-31T07:32:18.515Z,76.75
2022-12-31T07:35:12.115Z,76.64
2022-12-31T07:37:59.896Z,76.63
2022-12-31T07:40:34.572Z,76.96
2022-12-31T07:43:22.217Z,76.74
2022-12-31T07:46:13.229Z,76.42
2022-12-31T07:48:39.842Z,76.29
2022-12-31T07:51:06.691Z,75.73
2022-12-31T07:53:33.279Z,75.71
2022-12-31T07:56:00.829Z,75.57
2022-12-31T07:58:48.312Z,74.99
2022-12-31T08:01:17.048Z,75.31
2022-12-31T08:04:10.052Z,75.60
2022-12-31T08:06:56.879Z,75.16
2022-12-31T08:09:31.196Z,75.23
2022-12-31T08:11:59.505Z,74.95
2022-12-31T08:14:26.793Z,75.39
2022-12-31T08:16:53.978Z,75.12
2022-12-31T08:19:27.608Z,75.08
2022-12-31T08:22:40.514Z,74.47
2022-12-31T08:25:33.027Z,74.66
2022-12-31T08:28:14.685Z,74.74
2022-12-31T08:31:10.939Z,74.70
2022-12-31T08:33:49.053Z,74.69
2022-12-31T08:36:36.212Z,75.34
2022-12-31T08:39:25.397Z,75.07
2022-12-31T08:41:54.663Z,75.57
2022-12-31T08:44:44.752Z,75.68
2022-12-31T08:47:26.351Z,75.98
2022-12-31T08:49:52.901Z,76.24
2022-12-31T08:52:23.782Z,75.66
2022-12-31T08:54:50.432Z,75.46
2022-12-31T08:57:26.243Z,75.75
2022-12-31T08:59:57.880Z,75.44
2022-12-31T09:02:48.279Z,74.99
2022-12-31T09:05:31.161Z,75.10
2022-12-31T09:08:14.693Z,75.36
2022-12-31T09:10:51.587Z,74.82
2022-12-31T09:13:27.994Z,74.59
2022-12-31T09:16:24.901Z,75.11
2022-12-31T09:18:51.318Z,74.46
2022-12-31T09:21:17.857Z,74.98
2022-12-31T09:23:44.426Z,74.91
2022-12-31T09:26:35.819Z,74.47
2022-12-31T09:29:15.803Z,74.07
2022-12-31T09:31:51.539Z,74.23
2022-12-31T09:34:27.183Z,74.25
2022-12-31T09:37:07.101Z,73.79
2022-12-31T09:39:44.997Z,73.95
2022-12-31T09:42:48.264Z,73.85
2022-12-31T09:45:34.005Z,74.16
2022-12-31T09:48:00.268Z,73.65
2022-12-31T09:50:49.352Z,73.58
2022-12-31T09:53:30.919Z,73.48
2022-12-31T09:56:17.647Z,73.12
2022-12-31T09:59:06.899Z,72.85
2022-12-31T10:01:55.666Z,72.50
2022-12-31T10:04:43.246Z,72.55
2022-12-31T10:07:25.001Z,72.27
2022-12-31T10:09:54.560Z,72.11
2022-12-31T10:12:34.780Z,71.84
2022-12-31T10:15:10.170Z,71.58
2022-12-31T10:17:49.408Z,72.02
2022-12-31T10:20:32.440Z,71.56
2022-12-31T10:23:24.501Z,70.83
2022-12-31T10:26:02.850Z,71.50
2022-12-31T10:28:54.804Z,71.38
2022-12-31T10:31:37.584Z,70.88
2022-12-31T10:34:34.854Z,71.46
2022-12-31T10:37:10.972Z,70.55
2022-12-31T10:39:59.661Z,70.65
2022-12-31T10:42:50.484Z,70.06
2022-12-31T10:45:39.018Z,69.83
2022-12-31T10:48:17.339Z,69.93
2022-12-31T10:51:18.938Z,70.16
2022-12-31T10:54:05.718Z,70.05
2022-12-31T10:56:58.569Z,70.05
2022-12-31T11:00:10.166Z,70.21
2022-12-31T11:03:05.761Z,69.30
2022-12-31T11:06:00.117Z,69.55
2022-12-31T11:08:41.826Z,68.99
2022-12-31T11:11:26.471Z,68.95
2022-12-31T11:14:14.533Z,69.23
2022-12-31T11:17:05.639Z,69.73
2022-12-31T11:19:40.961Z,69.68
2022-12-31T11:22:29.061Z,69.61
2022-12-31T11:25:22.538Z,68.77
2022-12-31T11:28:22.096Z,68.88
2022-12-31T11:31:20.091Z,69.33
2022-12-31T11:34:13.837Z,68.32
2022-12-31T11:36:52.955Z,68.22
2022-12-31T11:39:42.586Z,68.63
2022-12-31T11:42:21.002Z,67.96
2022-12-31T11:45:04.697Z,67.60
2022-12-31T11:48:04.250Z,67.60
2022-12-31T11:50:38.510Z,68.54
2022-12-31T11:53:23.884Z,68.20
2022-12-31T11:56:00.464Z,68.04
2022-12-31T11:58:28.915Z,67.44
2022-12-31T12:01:11.356Z,67.31
2022-12-31T12:03:42.527Z,66.81
2022-12-31T12:06:14.201Z,66.60
2022-12-31T12:08:41.222Z,66.50
2022-12-31T12:11:18.703Z,66.18
2022-12-31T12:13:45.108Z,65.76
2022-12-31T12:16:11.628Z,65.88
2022-12-31T12:18:45.290Z,65.46
2022-12-31T12:21:12.565Z,65.85
2022-12-31T12:23:39.502Z,65.84
2022-12-31T12:26:06.916Z,65.39
2022-12-31T12:28:44.477Z,65.17
2022-12-31T12:31:20.672Z,65.76
2022-12-31T12:33:47.918Z,65.33
2022-12-31T12:36:15.823Z,65.59
2022-12-31T12:38:43.129Z,65.29
2022-12-31T12:41:25.324Z,65.00
2022-12-31T12:44:06.068Z,64.97
2022-12-31T12:46:48.308Z,65.63
2022-12-31T12:49:37.095Z,64.94
2022-12-31T12:52:37.891Z,64.94
2022-12-31T12:55:57.901Z,64.80
2022-12-31T12:58:36.108Z,64.84
2022-12-31T13:01:12.432Z,64.88
2022-12-31T13:04:23.437Z,64.61
2022-12-31T13:06:58.192Z,64.90
2022-12-31T13:09:51.413Z,64.98
2022-12-31T13:12:23.663Z,64.70
2022-12-31T13:15:03.868Z,65.26
2022-12-31T13:17:32.858Z,65.28
2022-12-31T13:20:06.149Z,64.17
2022-12-31T13:22:37.749Z,65.14
2022-12-31T13:25:21.913Z,65.13
2022-12-31T13:27:50.665Z,65.19
2022-12-31T13:30:23.308Z,64.62
2022-12-31T13:32:57.602Z,65.08
2022-12-31T13:35:34.419Z,64.57
2022-12-31T13:38:09.841Z,64.41
2022-12-31T13:41:00.376Z,64.60
2022-12-31T13:43:43.393Z,64.90
2022-12-31T13:46:26.445Z,64.78
2022-12-31T13:48:56.481Z,65.62
2022-12-31T13:51:34.854Z,65.96
2022-12-31T13:54:13.712Z,66.34
2022-12-31T13:56:40.881Z,66.53
2022-12-31T13:59:15.496Z,66.43
2022-12-31T14:02:00.677Z,66.83
2022-12-31T14:04:50.478Z,67.12
2022-12-31T14:07:20.628Z,67.60
2022-12-31T14:09:47.127Z,67.14
2022-12-31T14:12:17.853Z,67.41
2022-12-31T14:15:01.703Z,67.55
2022-12-31T14:17:54.284Z,67.42
2022-12-31T14:20:42.639Z,67.31
2022-12-31T14:23:23.907Z,67.09
2022-12-31T14:26:01.389Z,67.11
2022-12-31T14:28:32.331Z,67.54
2022-12-31T14:31:13.755Z,67.76
2022-12-31T14:34:07.735Z,67.37
2022-12-31T14:36:50.096Z,67.26
2022-12-31T14:39:29.438Z,67.36
2022-12-31T14:42:15.976Z,66.32
2022-12-31T14:44:45.725Z,66.32
2022-12-31T14:47:27.172Z,66.21
2022-12-31T14:50:06.039Z,65.90
2022-12-31T14:52:35.118Z,66.16
2022-12-31T14:55:07.854Z,65.23
2022-12-31T14:58:09.640Z,64.65
2022-12-31T15:00:34.279Z,64.25
2022-12-31T15:03:23.488Z,64.46
2022-12-31T15:06:19.365Z,64.41
2022-12-31T15:09:07.491Z,64.36
2022-12-31T15:11:45.981Z,64.26
2022-12-31T15:14:24.790Z,64.20
2022-12-31T15:17:09.091Z,64.76
2022-12-31T15:19:56.830Z,64.87
2022-12-31T15:22:35.437Z,65.24
2022-12-31T15:25:01.946Z,65.20
2022-12-31T15:27:30.477Z,64.84
2022-12-31T15:29:56.962Z,64.45
2022-12-31T15:32:31.844Z,64.74
2022-12-31T15:35:29.508Z,63.82
2022-12-31T15:38:04.036Z,64.17
2022-12-31T15:40:30.705Z,63.74
2022-12-31T15:43:04.333Z,64.00
2022-12-31T15:45:37.603Z,64.30
2022-12-31T15:48:26.031Z,64.44
2022-12-31T15:50:55.537Z,64.98
2022-12-31T15:53:29.609Z,65.12
2022-12-31T15:55:58.199Z,65.49
2022-12-31T15:58:26.895Z,65.88
2022-12-31T16:01:02.825Z,65.97
2022-12-31T16:03:30.853Z,66.48
2022-12-31T16:06:02.494Z,66.88
2022-12-31T16:08:31.495Z,67.10
2022-12-31T16:10:58.423Z,67.30
2022-12-31T16:13:26.320Z,67.34
2022-12-31T16:16:00.283Z,67.61
2022-12-31T16:18:36.732Z,67.62
2022-12-31T16:21:03.158Z,68.22
2022-12-31T16:23:29.602Z,68.38
2022-12-31T16:25:59.875Z,68.55
2022-12-31T16:28:30.446Z,68.31
2022-12-31T16:31:03.383Z,68.34
2022-12-31T16:33:30.479Z,68.79
2022-12-31T16:35:58.619Z,68.66
2022-12-31T16:38:33.131Z,68.27
2022-12-31T16:41:02.183Z,68.00
2022-12-31T16:43:39.720Z,68.47
2022-12-31T16:46:16.871Z,68.23
2022-12-31T16:48:48.728Z,68.84
2022-12-31T16:51:23.585Z,68.24
2022-12-31T16:53:50.308Z,68.67
2022-12-31T16:56:25.032Z,68.38
2022-12-31T16:58:59.052Z,68.47
2022-12-31T17:01:25.635Z,68.35
2022-12-31T17:03:55.666Z,68.14
2022-12-31T17:06:22.364Z,68.41
2022-12-31T17:09:00.786Z,67.30
2022-12-31T17:11:33.661Z,67.36
2022-12-31T17:14:13.687Z,67.69
2022-12-31T17:16:57.746Z,67.31
2022-12-31T17:19:36.940Z,66.90
2022-12-31T17:22:05.247Z,66.85
2022-12-31T17:24:31.600Z,66.46
2022-12-31T17:27:04.219Z,67.04
2022-12-31T17:29:30.687Z,66.62
2022-12-31T17:31:59.455Z,66.53
2022-12-31T17:34:47.408Z,66.51
2022-12-31T17:38:07.267Z,67.09
2022-12-31T17:40:51.574Z,67.10
2022-12-31T17:44:10.314Z,66.08
2022-12-31T17:47:20.945Z,66.61
2022-12-31T17:53:56.316Z,65.29
2022-12-31T18:00:22.964Z,65.94
2022-12-31T18:03:21.759Z,65.61
2022-12-31T18:05:53.217Z,65.69
2022-12-31T18:09:04.551Z,64.75
2022-12-31T18:11:32.346Z,65.10
2022-12-31T18:17:59.450Z,64.68
2022-12-31T18:20:26.373Z,64.29
2022-12-31T18:22:55.893Z,63.33
2022-12-31T18:25:30.388Z,62.92
2022-12-31T18:28:08.790Z,63.54
2022-12-31T18:30:35.293Z,62.80
2022-12-31T18:33:09.454Z,62.68
2022-12-31T18:38:57.895Z,62.06
2022-12-31T18:41:36.464Z,61.91
2022-12-31T18:44:14.772Z,62.24
2022-12-31T18:46:41.354Z,62.37
2022-12-31T18:49:16.357Z,61.59
2022-12-31T18:51:42.786Z,62.42
2022-12-31T18:54:10.619Z,62.06
2022-12-31T18:56:47.187Z,63.01
2022-12-31T18:59:18.125Z,63.43
2022-12-31T19:01:51.992Z,63.53
2022-12-31T19:04:27.020Z,64.08
2022-12-31T19:06:54.767Z,63.34
2022-12-31T19:12:14.004Z,64.07
2022-12-31T19:14:43.576Z,63.29
2022-12-31T19:19:35.251Z,63.97
2022-12-31T19:22:02.543Z,64.37
2022-12-31T19:24:29.045Z,64.71
2022-12-31T19:26:55.460Z,65.35
2022-12-31T19:29:26.752Z,66.16
2022-12-31T19:31:53.491Z,65.85
2022-12-31T19:34:19.918Z,64.82
2022-12-31T19:36:46.313Z,65.78
2022-12-31T19:39:17.202Z,65.20
2022-12-31T19:41:44.361Z,64.91
2022-12-31T19:44:16.126Z,64.86
2022-12-31T19:46:42.603Z,65.04
2022-12-31T19:49:13.203Z,64.87
2022-12-31T19:51:39.822Z,64.95
2022-12-31T19:54:06.982Z,64.76
2022-12-31T19:56:33.548Z,65.24
2022-12-31T19:59:05.496Z,65.48
2022-12-31T20:01:32.005Z,65.67
2022-12-31T20:03:58.519Z,65.17
2022-12-31T20:06:24.952Z,65.70
2022-12-31T20:08:51.300Z,65.62
2022-12-31T20:11:20.416Z,64.80
2022-12-31T20:13:48.205Z,66.10
2022-12-31T20:16:17.092Z,65.16
2022-12-31T20:18:44.746Z,65.45
2022-12-31T20:21:12.344Z,65.14
2022-12-31T20:23:38.798Z,64.34
2022-12-31T20:26:05.346Z,63.68
2022-12-31T20:28:31.718Z,62.74
2022-12-31T20:30:58.109Z,63.51
2022-12-31T20:33:24.484Z,62.95
2022-12-31T20:35:51.137Z,62.66
2022-12-31T20:38:17.525Z,62.62
2022-12-31T20:40:46.861Z,62.97
2022-12-31T20:43:13.911Z,62.98
2022-12-31T20:45:41.411Z,62.87
2022-12-31T20:48:07.960Z,63.50
2022-12-31T20:50:34.428Z,64.99
2022-12-31T20:53:00.888Z,64.43
2022-12-31T20:55:27.430Z,64.33
2022-12-31T20:57:53.872Z,64.46
2022-12-31T21:00:20.216Z,64.08
2022-12-31T21:02:53.160Z,63.81
2022-12-31T21:05:24.324Z,64.17
2022-12-31T21:07:50.898Z,64.03
2022-12-31T21:10:17.387Z,64.62
2022-12-31T21:12:43.804Z,65.19
2022-12-31T21:15:13.196Z,65.40
2022-12-31T21:17:39.796Z,65.49
2022-12-31T21:20:06.888Z,65.61
2022-12-31T21:22:33.795Z,64.74
2022-12-31T21:25:06.622Z,65.16
2022-12-31T21:27:33.244Z,64.78
2022-12-31T21:30:18.184Z,64.56
2022-12-31T21:32:45.633Z,64.84
2022-12-31T21:35:41.594Z,64.87
2022-12-31T21:38:02.142Z,65.43
2022-12-31T21:40:29.257Z,65.35
2022-12-31T21:42:55.776Z,65.07
2022-12-31T21:45:22.183Z,65.11
2022-12-31T21:48:07.231Z,65.60
2022-12-31T21:50:34.120Z,65.13
2022-12-31T21:53:00.531Z,65.85
2022-12-31T21:55:45.528Z,65.89
2022-12-31T21:58:28.316Z,66.26
2022-12-31T22:01:17.356Z,67.22
2022-12-31T22:03:44.492Z,67.05
2022-12-31T22:06:14.017Z,66.96
2022-12-31T22:08:41.804Z,67.84
2022-12-31T22:11:09.309Z,67.68
2022-12-31T22:13:36.079Z,67.58
2022-12-31T22:16:05.667Z,68.71
2022-12-31T22:18:35.591Z,68.49
2022-12-31T22:21:19.412Z,69.17
2022-12-31T22:23:54.480Z,68.88
2022-12-31T22:26:23.400Z,69.21
2022-12-31T22:28:50.697Z,69.51
2022-12-31T22:31:19.512Z,69.63
2022-12-31T22:33:46.128Z,70.00
2022-12-31T22:36:15.614Z,69.32
2022-12-31T22:38:42.547Z,69.44
2022-12-31T22:41:19.624Z,69.58
2022-12-31T22:43:48.585Z,70.15
2022-12-31T22:46:16.403Z,69.76
2022-12-31T22:48:43.198Z,70.12
2022-12-31T22:51:13.832Z,69.81
2022-12-31T22:53:41.224Z,70.49
2022-12-31T22:56:08.405Z,70.95
2022-12-31T22:58:34.841Z,70.90
2022-12-31T23:01:04.922Z,71.32
2022-12-31T23:03:31.581Z,71.10
2022-12-31T23:05:58.022Z,71.09
2022-12-31T23:08:24.531Z,71.57
2022-12-31T23:11:05.185Z,71.59
2022-12-31T23:13:56.359Z,71.90
2022-12-31T23:16:42.684Z,72.55
2022-12-31T23:19:27.980Z,72.12
2022-12-31T23:22:13.195Z,71.93
2022-12-31T23:24:39.733Z,71.64
2022-12-31T23:27:06.446Z,71.99
2022-12-31T23:29:32.949Z,71.73
2022-12-31T23:31:59.386Z,71.98
2022-12-31T23:34:25.796Z,71.87
2022-12-31T23:36:52.332Z,72.00
2022-12-31T23:39:18.697Z,72.48
2022-12-31T23:41:45.081Z,72.13
2022-12-31T23:44:14.258Z,71.65
2022-12-31T23:46:41.091Z,72.28
2022-12-31T23:49:07.642Z,71.88
2022-12-31T23:51:35.944Z,72.16
2022-12-31T23:54:05.809Z,72.29
2022-12-31T23:56:32.188Z,72.59
2022-12-31T23:58:59.767Z,72.39
